Portada
METAR-TAF:

METAR-TAF

Aeropuertos :

Aeropuerto Cherif Al Idrissi

Alhucemas, Marruecos

latitud: 35-11N, longitud: 003-51W, altitud: 27 m

Observación

El informe se hizo hace 57 minutos, a las 19:00 UTC
Viento 8 kt del oeste-noroeste
Temperatura 17°C
Humedad 77%
Presión 1016 hPa
Visibilidad 10 km o más
Nubes dispersas a una altura de 2000 ft, Cumulus congestus.
Nubes dispersas a una altura de 2600 ft

METAR: GMTA 211900Z 30008KT 9999 SCT020TCU SCT026 17/13 Q1016 NOSIG

Hora: 19:57 (19:57 UTC)

Pronóstico

El informe se hizo hace 2 horas y 57 minutos, a las 17:00 UTC
Pronóstico válido del 21 a las 18 UTC al 22 a las 24 UTC
Viento 3 kt con dirección variable
Visibilidad: 8000 m
Nubes dispersas a una altura de 3000 ft
Cielo nuboso a una altura de 23000 ft

TAF: GMTA 211700Z 2118/2224 VRB03KT 8000 SCT030 BKN230

Observaciones y pronósticos meteorológicos de más de 4000 aeropuertos (mensajes METAR y TAF).

Los puntos amarillos y rojos representan las estaciones disponibles.

Ponga el ratón en el punto deseado para ver el nombre de la estación.

Haga clic para ver las observaciones y los pronósticos meteorológicos.

Para cambiar el mapa : haga clic en los botones verdes con una cruz de color negro para hacer un zoom, en el botón verde con un guión para alejar o en las flechas verdes para mapas adyacentes.


METAR-TAF: